Strona główna
METAR-TAF:

METAR-TAF

Lotnisko :

Port lotniczy Miri

Miri, Malezja

Szerokość geograficzna: 04-20N, Długość geograficzna: 113-59E, wysokość: 17 m

Aktualna obserwacja pogody

Raport powstał 58 minut temu, godzina 21:00 UTC
Cisza
Temperatura 26°C
Wilgotność 94%
Ciśnienie 1010 hPa
Widzialność 10 km lub więcej
Rozproszone chmury na wysokości 1600 ft

METAR: WBGR 102100Z 00000KT 9999 SCT016 26/25 Q1010

czas: 05:58 (21:58 UTC)

Prognoza

Raport powstał 4 godziny i 58 minut temu, godzina 17:00 UTC
Prognoza ważna od 10 godzina 18 UTC do 11 godzina 18 UTC
Wiatr 5 kt od północ
Widzialność 10 km lub więcej
Rozproszone chmury na wysokości 1600 ft

TAF: WBGR 101700Z 1018/1118 35005KT 9999 SCT016

Obserwacja i prognoza pogody dla ponad 4000 lotnisk (raport METAR i TAF).

Dostępne stacje oznaczono żółtymi i czerwonymi punktami na mapie.

Najedź kursorem aby zobaczyć nazwę stacji.

Kliknij aby zobaczyć obserwacje i prognozy pogody.

Aby zmienić mapę: kliknij na zielony przycisk z czarnym krzyżykiem, aby powiększyć; na zielony przycisk z myślnikiem, aby pomniejszyć; na zielone strzałki, aby przejść do map sąsiednich.


METAR-TAF: